KFTK

Godman AAF Airport

Fort Knox, Kentucky, USA
METAR KFTK 201556Z AUTO 18010KT 10SM SCT016 BKN023 26/24 A2995 RMK AO2 RAE1458DZB1458E1459RAB12E36 CIG 014V025 SLP138 P0001 T02610235
Observed Flight Rules
Aug-20 @ 15:56 UTC (29 minutes ago) Marginal Visual Flight Rules
Wind Visibility Clouds
180° at 10 knots 10 miles
  • Scattered at 1,600' AGL
  • Broken at 2,300' AGL
Temperatures Readings Precipitation
Current 26°C / 79°F
Dewpoint 24°C / 75°F
Humidity 89%
Altimeter 29.95" Hg
Pressure 1013.8 hPa
Elevation 230
Current Rain 0.01
METAR KFTK 201556Z AUTO 18010KT 10SM SCT016 BKN023 26/24 A2995 RMK AO2 RAE1458DZB1458E1459RAB12E36 CIG 014V025 SLP138 P0001 T02610235
Observed Flight Rules
Aug-20 @ 15:56 UTC
(29 minutes ago)
MVFR
Wind Visibility
180° at 10 knots 10 miles
Clouds
  • Scattered at 1,600' AGL
  • Broken at 2,300' AGL
Temperature Dewpoint
26°C / 79°F 24°C / 75°F
Humidity Altimeter Pressure
89% 29.95" Hg 1013.8 hPa
Current Rain
0.01